sensor_id;sensor_type;location;lat;lon;timestamp;P1;durP1;ratioP1;P2;durP2;ratioP2
30307;SDS011;17114;52.314;8.910;2022-07-29T00:02:24;5.13;;;1.40;;
30307;SDS011;17114;52.314;8.910;2022-07-29T00:04:51;3.25;;;1.40;;
30307;SDS011;17114;52.314;8.910;2022-07-29T00:07:18;3.53;;;1.67;;
30307;SDS011;17114;52.314;8.910;2022-07-29T00:09:45;4.50;;;1.65;;
30307;SDS011;17114;52.314;8.910;2022-07-29T00:12:18;4.25;;;1.70;;
30307;SDS011;17114;52.314;8.910;2022-07-29T00:14:52;3.97;;;1.33;;
30307;SDS011;17114;52.314;8.910;2022-07-29T00:17:21;4.75;;;1.83;;
30307;SDS011;17114;52.314;8.910;2022-07-29T00:19:49;3.55;;;1.35;;
30307;SDS011;17114;52.314;8.910;2022-07-29T00:22:16;5.20;;;1.63;;
30307;SDS011;17114;52.314;8.910;2022-07-29T00:24:43;5.13;;;1.52;;
30307;SDS011;17114;52.314;8.910;2022-07-29T00:27:09;4.45;;;1.40;;
30307;SDS011;17114;52.314;8.910;2022-07-29T00:29:36;4.18;;;1.55;;
30307;SDS011;17114;52.314;8.910;2022-07-29T00:32:03;3.35;;;1.48;;
30307;SDS011;17114;52.314;8.910;2022-07-29T00:34:30;4.10;;;1.52;;
30307;SDS011;17114;52.314;8.910;2022-07-29T00:37:15;3.58;;;1.40;;
30307;SDS011;17114;52.314;8.910;2022-07-29T00:39:43;4.75;;;1.50;;
30307;SDS011;17114;52.314;8.910;2022-07-29T00:42:10;7.68;;;2.08;;
30307;SDS011;17114;52.314;8.910;2022-07-29T00:44:40;5.60;;;1.95;;
30307;SDS011;17114;52.314;8.910;2022-07-29T00:47:08;4.55;;;1.40;;
30307;SDS011;17114;52.314;8.910;2022-07-29T00:49:35;6.50;;;1.80;;
30307;SDS011;17114;52.314;8.910;2022-07-29T00:52:05;6.40;;;1.85;;
30307;SDS011;17114;52.314;8.910;2022-07-29T00:54:33;4.25;;;1.50;;
30307;SDS011;17114;52.314;8.910;2022-07-29T00:57:09;3.97;;;1.50;;
30307;SDS011;17114;52.314;8.910;2022-07-29T00:59:36;3.55;;;1.52;;
30307;SDS011;17114;52.314;8.910;2022-07-29T01:02:03;4.32;;;1.67;;
30307;SDS011;17114;52.314;8.910;2022-07-29T01:04:30;4.95;;;1.50;;
30307;SDS011;17114;52.314;8.910;2022-07-29T01:06:58;4.32;;;1.40;;
30307;SDS011;17114;52.314;8.910;2022-07-29T01:09:34;3.47;;;1.45;;
30307;SDS011;17114;52.314;8.910;2022-07-29T01:12:13;5.53;;;1.40;;
30307;SDS011;17114;52.314;8.910;2022-07-29T01:14:43;7.07;;;1.42;;
30307;SDS011;17114;52.314;8.910;2022-07-29T01:17:12;6.25;;;1.50;;
30307;SDS011;17114;52.314;8.910;2022-07-29T01:19:56;6.53;;;1.80;;
30307;SDS011;17114;52.314;8.910;2022-07-29T01:30:37;5.10;;;1.58;;
30307;SDS011;17114;52.314;8.910;2022-07-29T01:33:10;5.65;;;1.60;;
30307;SDS011;17114;52.314;8.910;2022-07-29T01:36:01;5.50;;;1.60;;
30307;SDS011;17114;52.314;8.910;2022-07-29T01:38:31;4.78;;;1.35;;
30307;SDS011;17114;52.314;8.910;2022-07-29T01:41:02;2.97;;;1.52;;
30307;SDS011;17114;52.314;8.910;2022-07-29T01:43:44;4.30;;;1.58;;
30307;SDS011;17114;52.314;8.910;2022-07-29T01:46:20;6.47;;;1.50;;
30307;SDS011;17114;52.314;8.910;2022-07-29T01:48:59;7.70;;;1.83;;
30307;SDS011;17114;52.314;8.910;2022-07-29T01:52:15;4.95;;;1.70;;
30307;SDS011;17114;52.314;8.910;2022-07-29T01:54:47;7.97;;;1.92;;
30307;SDS011;17114;52.314;8.910;2022-07-29T01:57:18;4.60;;;1.40;;
30307;SDS011;17114;52.314;8.910;2022-07-29T01:59:49;3.60;;;1.50;;
30307;SDS011;17114;52.314;8.910;2022-07-29T02:02:18;5.72;;;1.67;;
30307;SDS011;17114;52.314;8.910;2022-07-29T02:04:48;3.40;;;1.40;;
30307;SDS011;17114;52.314;8.910;2022-07-29T02:07:18;5.68;;;1.65;;
30307;SDS011;17114;52.314;8.910;2022-07-29T02:09:47;2.85;;;1.45;;
30307;SDS011;17114;52.314;8.910;2022-07-29T02:12:16;9.93;;;1.95;;
30307;SDS011;17114;52.314;8.910;2022-07-29T02:14:47;5.63;;;1.75;;
30307;SDS011;17114;52.314;8.910;2022-07-29T02:17:19;3.33;;;1.48;;
30307;SDS011;17114;52.314;8.910;2022-07-29T02:19:49;6.88;;;1.67;;
30307;SDS011;17114;52.314;8.910;2022-07-29T02:22:18;3.65;;;1.65;;
30307;SDS011;17114;52.314;8.910;2022-07-29T02:24:46;3.80;;;1.70;;
30307;SDS011;17114;52.314;8.910;2022-07-29T02:27:15;4.80;;;1.45;;
30307;SDS011;17114;52.314;8.910;2022-07-29T02:29:47;3.88;;;1.77;;
30307;SDS011;17114;52.314;8.910;2022-07-29T02:32:16;5.28;;;1.48;;
30307;SDS011;17114;52.314;8.910;2022-07-29T02:34:45;6.47;;;1.65;;
30307;SDS011;17114;52.314;8.910;2022-07-29T02:37:13;4.07;;;1.60;;
30307;SDS011;17114;52.314;8.910;2022-07-29T02:39:43;4.90;;;1.50;;
30307;SDS011;17114;52.314;8.910;2022-07-29T02:42:13;3.58;;;1.48;;
30307;SDS011;17114;52.314;8.910;2022-07-29T02:44:42;4.80;;;1.77;;
30307;SDS011;17114;52.314;8.910;2022-07-29T02:47:23;7.53;;;1.50;;
30307;SDS011;17114;52.314;8.910;2022-07-29T02:52:42;4.35;;;1.27;;
30307;SDS011;17114;52.314;8.910;2022-07-29T02:55:15;4.90;;;1.67;;
30307;SDS011;17114;52.314;8.910;2022-07-29T03:00:30;3.50;;;1.40;;
30307;SDS011;17114;52.314;8.910;2022-07-29T03:03:00;4.22;;;1.20;;
30307;SDS011;17114;52.314;8.910;2022-07-29T03:05:30;6.57;;;1.40;;
30307;SDS011;17114;52.314;8.910;2022-07-29T03:08:00;7.35;;;1.63;;
30307;SDS011;17114;52.314;8.910;2022-07-29T03:10:30;5.47;;;1.95;;
30307;SDS011;17114;52.314;8.910;2022-07-29T03:12:58;3.50;;;1.60;;
30307;SDS011;17114;52.314;8.910;2022-07-29T03:15:25;5.80;;;1.92;;
30307;SDS011;17114;52.314;8.910;2022-07-29T03:17:53;4.32;;;1.67;;
30307;SDS011;17114;52.314;8.910;2022-07-29T03:20:22;5.57;;;1.75;;
30307;SDS011;17114;52.314;8.910;2022-07-29T03:22:49;3.22;;;1.48;;
30307;SDS011;17114;52.314;8.910;2022-07-29T03:25:17;2.33;;;1.40;;
30307;SDS011;17114;52.314;8.910;2022-07-29T03:27:45;3.83;;;1.27;;
30307;SDS011;17114;52.314;8.910;2022-07-29T03:30:13;5.78;;;1.50;;
30307;SDS011;17114;52.314;8.910;2022-07-29T03:32:47;6.38;;;1.50;;
30307;SDS011;17114;52.314;8.910;2022-07-29T03:35:17;5.63;;;1.75;;
30307;SDS011;17114;52.314;8.910;2022-07-29T03:37:48;4.22;;;1.85;;
30307;SDS011;17114;52.314;8.910;2022-07-29T03:40:38;6.80;;;1.73;;
30307;SDS011;17114;52.314;8.910;2022-07-29T03:43:32;4.95;;;1.77;;
30307;SDS011;17114;52.314;8.910;2022-07-29T03:46:03;4.57;;;1.85;;
30307;SDS011;17114;52.314;8.910;2022-07-29T03:48:34;9.50;;;2.03;;
30307;SDS011;17114;52.314;8.910;2022-07-29T03:51:04;5.55;;;1.55;;
30307;SDS011;17114;52.314;8.910;2022-07-29T03:53:32;5.43;;;2.00;;
30307;SDS011;17114;52.314;8.910;2022-07-29T03:56:01;4.30;;;1.85;;
30307;SDS011;17114;52.314;8.910;2022-07-29T03:58:29;3.88;;;1.70;;
30307;SDS011;17114;52.314;8.910;2022-07-29T04:00:57;4.72;;;1.83;;
30307;SDS011;17114;52.314;8.910;2022-07-29T04:03:25;3.45;;;1.27;;
30307;SDS011;17114;52.314;8.910;2022-07-29T04:06:02;5.68;;;1.83;;
30307;SDS011;17114;52.314;8.910;2022-07-29T04:08:33;11.98;;;2.05;;
30307;SDS011;17114;52.314;8.910;2022-07-29T04:11:01;4.45;;;1.20;;
30307;SDS011;17114;52.314;8.910;2022-07-29T04:13:28;5.30;;;1.60;;
30307;SDS011;17114;52.314;8.910;2022-07-29T04:15:58;2.95;;;1.50;;
30307;SDS011;17114;52.314;8.910;2022-07-29T04:18:26;5.57;;;2.00;;
30307;SDS011;17114;52.314;8.910;2022-07-29T04:20:53;2.38;;;1.70;;
30307;SDS011;17114;52.314;8.910;2022-07-29T04:23:20;6.15;;;1.50;;
30307;SDS011;17114;52.314;8.910;2022-07-29T04:25:47;3.67;;;1.70;;
30307;SDS011;17114;52.314;8.910;2022-07-29T04:28:14;6.53;;;1.50;;
30307;SDS011;17114;52.314;8.910;2022-07-29T04:30:42;3.50;;;1.50;;
30307;SDS011;17114;52.314;8.910;2022-07-29T04:33:11;3.10;;;1.38;;
30307;SDS011;17114;52.314;8.910;2022-07-29T04:35:38;6.65;;;1.67;;
30307;SDS011;17114;52.314;8.910;2022-07-29T04:38:15;5.78;;;1.92;;
30307;SDS011;17114;52.314;8.910;2022-07-29T04:40:42;5.38;;;1.60;;
30307;SDS011;17114;52.314;8.910;2022-07-29T04:43:10;4.00;;;1.70;;
30307;SDS011;17114;52.314;8.910;2022-07-29T04:45:39;4.95;;;1.60;;
30307;SDS011;17114;52.314;8.910;2022-07-29T04:48:06;5.72;;;1.80;;
30307;SDS011;17114;52.314;8.910;2022-07-29T04:50:33;5.32;;;1.80;;
30307;SDS011;17114;52.314;8.910;2022-07-29T04:53:00;3.80;;;1.60;;
30307;SDS011;17114;52.314;8.910;2022-07-29T04:55:27;4.93;;;1.58;;
30307;SDS011;17114;52.314;8.910;2022-07-29T04:57:54;5.53;;;1.92;;
30307;SDS011;17114;52.314;8.910;2022-07-29T05:00:21;6.53;;;1.70;;
30307;SDS011;17114;52.314;8.910;2022-07-29T05:02:58;10.25;;;2.05;;
30307;SDS011;17114;52.314;8.910;2022-07-29T05:05:25;3.63;;;1.98;;
30307;SDS011;17114;52.314;8.910;2022-07-29T05:07:52;3.85;;;1.50;;
30307;SDS011;17114;52.314;8.910;2022-07-29T05:10:19;3.13;;;1.35;;
30307;SDS011;17114;52.314;8.910;2022-07-29T05:12:49;7.05;;;1.55;;
30307;SDS011;17114;52.314;8.910;2022-07-29T05:15:16;6.70;;;1.90;;
30307;SDS011;17114;52.314;8.910;2022-07-29T05:17:44;5.63;;;1.42;;
30307;SDS011;17114;52.314;8.910;2022-07-29T05:20:10;7.10;;;1.67;;
30307;SDS011;17114;52.314;8.910;2022-07-29T05:22:37;3.97;;;1.48;;
30307;SDS011;17114;52.314;8.910;2022-07-29T05:25:04;9.80;;;1.70;;
30307;SDS011;17114;52.314;8.910;2022-07-29T05:27:35;9.23;;;1.70;;
30307;SDS011;17114;52.314;8.910;2022-07-29T05:30:03;3.42;;;1.55;;
30307;SDS011;17114;52.314;8.910;2022-07-29T05:32:30;6.07;;;1.67;;
30307;SDS011;17114;52.314;8.910;2022-07-29T05:34:58;5.32;;;2.10;;
30307;SDS011;17114;52.314;8.910;2022-07-29T05:37:25;7.20;;;1.60;;
30307;SDS011;17114;52.314;8.910;2022-07-29T05:39:52;6.00;;;1.60;;
30307;SDS011;17114;52.314;8.910;2022-07-29T05:42:24;5.35;;;1.58;;
30307;SDS011;17114;52.314;8.910;2022-07-29T05:44:52;4.75;;;1.40;;
30307;SDS011;17114;52.314;8.910;2022-07-29T05:47:19;3.40;;;1.50;;
30307;SDS011;17114;52.314;8.910;2022-07-29T05:49:46;4.95;;;1.77;;
30307;SDS011;17114;52.314;8.910;2022-07-29T05:52:13;3.40;;;1.60;;
30307;SDS011;17114;52.314;8.910;2022-07-29T05:54:40;7.50;;;1.90;;
30307;SDS011;17114;52.314;8.910;2022-07-29T05:57:07;4.70;;;1.73;;
30307;SDS011;17114;52.314;8.910;2022-07-29T05:59:37;9.55;;;1.95;;
30307;SDS011;17114;52.314;8.910;2022-07-29T06:02:04;7.53;;;1.80;;
30307;SDS011;17114;52.314;8.910;2022-07-29T06:04:31;11.02;;;2.17;;
30307;SDS011;17114;52.314;8.910;2022-07-29T06:06:59;4.88;;;1.40;;
30307;SDS011;17114;52.314;8.910;2022-07-29T06:09:28;4.25;;;1.67;;
30307;SDS011;17114;52.314;8.910;2022-07-29T06:11:55;7.57;;;1.75;;
30307;SDS011;17114;52.314;8.910;2022-07-29T06:14:22;5.78;;;1.83;;
30307;SDS011;17114;52.314;8.910;2022-07-29T06:16:48;5.03;;;1.67;;
30307;SDS011;17114;52.314;8.910;2022-07-29T06:19:16;6.30;;;1.95;;
30307;SDS011;17114;52.314;8.910;2022-07-29T06:21:43;7.35;;;1.98;;
30307;SDS011;17114;52.314;8.910;2022-07-29T06:24:14;3.78;;;1.48;;
30307;SDS011;17114;52.314;8.910;2022-07-29T06:26:42;6.28;;;2.17;;
30307;SDS011;17114;52.314;8.910;2022-07-29T06:29:09;3.45;;;1.73;;
30307;SDS011;17114;52.314;8.910;2022-07-29T06:31:37;11.40;;;2.38;;
30307;SDS011;17114;52.314;8.910;2022-07-29T06:34:04;8.00;;;1.85;;
30307;SDS011;17114;52.314;8.910;2022-07-29T06:36:40;5.57;;;1.65;;
30307;SDS011;17114;52.314;8.910;2022-07-29T06:39:08;9.70;;;1.80;;
30307;SDS011;17114;52.314;8.910;2022-07-29T06:41:37;5.35;;;1.80;;
30307;SDS011;17114;52.314;8.910;2022-07-29T06:44:04;5.63;;;1.70;;
30307;SDS011;17114;52.314;8.910;2022-07-29T06:46:31;3.35;;;1.70;;
30307;SDS011;17114;52.314;8.910;2022-07-29T06:49:00;5.85;;;1.88;;
30307;SDS011;17114;52.314;8.910;2022-07-29T06:51:28;9.35;;;1.60;;
30307;SDS011;17114;52.314;8.910;2022-07-29T06:53:55;4.65;;;2.05;;
30307;SDS011;17114;52.314;8.910;2022-07-29T06:56:32;3.45;;;1.90;;
30307;SDS011;17114;52.314;8.910;2022-07-29T06:59:05;5.78;;;1.50;;
30307;SDS011;17114;52.314;8.910;2022-07-29T07:01:33;10.07;;;1.77;;
30307;SDS011;17114;52.314;8.910;2022-07-29T07:04:01;4.78;;;1.67;;
30307;SDS011;17114;52.314;8.910;2022-07-29T07:06:28;3.55;;;1.60;;
30307;SDS011;17114;52.314;8.910;2022-07-29T07:08:58;6.18;;;1.90;;
30307;SDS011;17114;52.314;8.910;2022-07-29T07:11:28;5.75;;;1.63;;
30307;SDS011;17114;52.314;8.910;2022-07-29T07:13:56;7.72;;;1.63;;
30307;SDS011;17114;52.314;8.910;2022-07-29T07:16:28;5.95;;;1.60;;
30307;SDS011;17114;52.314;8.910;2022-07-29T07:18:59;3.50;;;1.40;;
30307;SDS011;17114;52.314;8.910;2022-07-29T07:21:27;10.70;;;1.83;;
30307;SDS011;17114;52.314;8.910;2022-07-29T07:23:56;5.43;;;1.70;;
30307;SDS011;17114;52.314;8.910;2022-07-29T07:26:24;5.72;;;1.90;;
30307;SDS011;17114;52.314;8.910;2022-07-29T07:28:51;4.28;;;1.90;;
30307;SDS011;17114;52.314;8.910;2022-07-29T07:31:18;4.95;;;1.70;;
30307;SDS011;17114;52.314;8.910;2022-07-29T07:33:46;4.38;;;1.60;;
30307;SDS011;17114;52.314;8.910;2022-07-29T07:36:13;6.45;;;1.75;;
30307;SDS011;17114;52.314;8.910;2022-07-29T07:38:40;8.63;;;1.70;;
30307;SDS011;17114;52.314;8.910;2022-07-29T07:41:07;7.60;;;1.77;;
30307;SDS011;17114;52.314;8.910;2022-07-29T07:43:34;4.95;;;1.80;;
30307;SDS011;17114;52.314;8.910;2022-07-29T07:46:01;6.50;;;1.73;;
30307;SDS011;17114;52.314;8.910;2022-07-29T07:48:28;5.82;;;1.88;;
30307;SDS011;17114;52.314;8.910;2022-07-29T07:50:55;5.00;;;1.63;;
30307;SDS011;17114;52.314;8.910;2022-07-29T07:53:22;3.75;;;1.95;;
30307;SDS011;17114;52.314;8.910;2022-07-29T07:55:49;4.30;;;1.70;;
30307;SDS011;17114;52.314;8.910;2022-07-29T07:58:36;7.03;;;1.73;;
30307;SDS011;17114;52.314;8.910;2022-07-29T08:01:03;3.92;;;1.70;;
30307;SDS011;17114;52.314;8.910;2022-07-29T08:03:30;7.25;;;1.88;;
30307;SDS011;17114;52.314;8.910;2022-07-29T08:05:57;5.57;;;2.13;;
30307;SDS011;17114;52.314;8.910;2022-07-29T08:08:24;5.05;;;1.70;;
30307;SDS011;17114;52.314;8.910;2022-07-29T08:10:51;6.60;;;2.03;;
30307;SDS011;17114;52.314;8.910;2022-07-29T08:13:21;4.20;;;1.77;;
30307;SDS011;17114;52.314;8.910;2022-07-29T08:15:56;7.40;;;1.73;;
30307;SDS011;17114;52.314;8.910;2022-07-29T08:18:24;7.00;;;1.70;;
30307;SDS011;17114;52.314;8.910;2022-07-29T08:20:52;7.55;;;1.85;;
30307;SDS011;17114;52.314;8.910;2022-07-29T08:23:19;10.07;;;2.03;;
30307;SDS011;17114;52.314;8.910;2022-07-29T08:25:50;7.75;;;2.03;;
30307;SDS011;17114;52.314;8.910;2022-07-29T08:28:20;5.80;;;1.73;;
30307;SDS011;17114;52.314;8.910;2022-07-29T08:30:51;5.90;;;1.85;;
30307;SDS011;17114;52.314;8.910;2022-07-29T08:33:18;7.25;;;2.00;;
30307;SDS011;17114;52.314;8.910;2022-07-29T08:35:44;5.32;;;2.25;;
30307;SDS011;17114;52.314;8.910;2022-07-29T08:38:11;9.10;;;1.90;;
30307;SDS011;17114;52.314;8.910;2022-07-29T08:40:39;4.20;;;2.05;;
30307;SDS011;17114;52.314;8.910;2022-07-29T08:43:06;9.85;;;2.00;;
30307;SDS011;17114;52.314;8.910;2022-07-29T08:45:41;5.95;;;1.98;;
30307;SDS011;17114;52.314;8.910;2022-07-29T08:48:14;9.35;;;2.35;;
30307;SDS011;17114;52.314;8.910;2022-07-29T08:50:43;6.25;;;2.20;;
30307;SDS011;17114;52.314;8.910;2022-07-29T08:53:16;6.10;;;2.15;;
30307;SDS011;17114;52.314;8.910;2022-07-29T08:55:45;4.97;;;1.95;;
30307;SDS011;17114;52.314;8.910;2022-07-29T08:58:14;6.60;;;2.20;;
30307;SDS011;17114;52.314;8.910;2022-07-29T09:00:46;4.13;;;1.88;;
30307;SDS011;17114;52.314;8.910;2022-07-29T09:03:20;5.45;;;2.00;;
30307;SDS011;17114;52.314;8.910;2022-07-29T09:05:50;8.32;;;2.65;;
30307;SDS011;17114;52.314;8.910;2022-07-29T09:08:18;8.10;;;2.10;;
30307;SDS011;17114;52.314;8.910;2022-07-29T09:10:46;7.07;;;1.63;;
30307;SDS011;17114;52.314;8.910;2022-07-29T09:13:13;3.30;;;1.80;;
30307;SDS011;17114;52.314;8.910;2022-07-29T09:15:40;7.30;;;2.08;;
30307;SDS011;17114;52.314;8.910;2022-07-29T09:18:07;5.28;;;1.75;;
30307;SDS011;17114;52.314;8.910;2022-07-29T09:20:54;4.57;;;1.80;;
30307;SDS011;17114;52.314;8.910;2022-07-29T09:23:40;10.10;;;2.40;;
30307;SDS011;17114;52.314;8.910;2022-07-29T09:26:07;4.93;;;2.50;;
30307;SDS011;17114;52.314;8.910;2022-07-29T09:28:34;6.47;;;2.20;;
30307;SDS011;17114;52.314;8.910;2022-07-29T09:31:08;6.15;;;1.80;;
30307;SDS011;17114;52.314;8.910;2022-07-29T09:33:35;9.63;;;2.08;;
30307;SDS011;17114;52.314;8.910;2022-07-29T09:36:06;8.80;;;2.17;;
30307;SDS011;17114;52.314;8.910;2022-07-29T09:38:35;8.70;;;2.20;;
30307;SDS011;17114;52.314;8.910;2022-07-29T09:41:04;7.97;;;2.28;;
30307;SDS011;17114;52.314;8.910;2022-07-29T09:43:32;8.70;;;2.05;;
30307;SDS011;17114;52.314;8.910;2022-07-29T09:46:09;8.32;;;2.28;;
30307;SDS011;17114;52.314;8.910;2022-07-29T09:48:38;5.75;;;1.77;;
30307;SDS011;17114;52.314;8.910;2022-07-29T09:51:05;8.30;;;2.22;;
30307;SDS011;17114;52.314;8.910;2022-07-29T09:53:47;5.93;;;1.75;;
30307;SDS011;17114;52.314;8.910;2022-07-29T09:56:14;9.98;;;1.80;;
30307;SDS011;17114;52.314;8.910;2022-07-29T09:58:41;7.03;;;2.45;;
30307;SDS011;17114;52.314;8.910;2022-07-29T10:01:08;6.65;;;2.75;;
30307;SDS011;17114;52.314;8.910;2022-07-29T10:03:51;10.90;;;2.50;;
30307;SDS011;17114;52.314;8.910;2022-07-29T10:06:18;7.22;;;1.98;;
30307;SDS011;17114;52.314;8.910;2022-07-29T10:08:45;6.63;;;1.85;;
30307;SDS011;17114;52.314;8.910;2022-07-29T10:11:16;5.85;;;1.90;;
30307;SDS011;17114;52.314;8.910;2022-07-29T10:13:44;8.52;;;1.98;;
30307;SDS011;17114;52.314;8.910;2022-07-29T10:16:14;8.82;;;2.33;;
30307;SDS011;17114;52.314;8.910;2022-07-29T10:18:42;4.38;;;1.77;;
30307;SDS011;17114;52.314;8.910;2022-07-29T10:21:10;8.98;;;1.80;;
30307;SDS011;17114;52.314;8.910;2022-07-29T10:23:59;5.97;;;2.15;;
30307;SDS011;17114;52.314;8.910;2022-07-29T10:26:27;8.10;;;1.92;;
30307;SDS011;17114;52.314;8.910;2022-07-29T10:28:55;7.00;;;2.08;;
30307;SDS011;17114;52.314;8.910;2022-07-29T10:31:26;7.43;;;2.28;;
30307;SDS011;17114;52.314;8.910;2022-07-29T10:34:07;7.47;;;1.77;;
30307;SDS011;17114;52.314;8.910;2022-07-29T10:36:59;7.93;;;2.33;;
30307;SDS011;17114;52.314;8.910;2022-07-29T10:39:54;6.38;;;1.90;;
30307;SDS011;17114;52.314;8.910;2022-07-29T10:43:02;6.43;;;1.77;;
30307;SDS011;17114;52.314;8.910;2022-07-29T10:45:54;8.25;;;2.15;;
30307;SDS011;17114;52.314;8.910;2022-07-29T10:48:24;5.60;;;2.03;;
30307;SDS011;17114;52.314;8.910;2022-07-29T10:50:58;8.52;;;2.10;;
30307;SDS011;17114;52.314;8.910;2022-07-29T10:53:48;7.55;;;1.77;;
30307;SDS011;17114;52.314;8.910;2022-07-29T11:01:48;7.57;;;2.25;;
30307;SDS011;17114;52.314;8.910;2022-07-29T11:07:12;8.95;;;1.80;;
30307;SDS011;17114;52.314;8.910;2022-07-29T11:10:09;5.68;;;1.83;;
30307;SDS011;17114;52.314;8.910;2022-07-29T11:12:46;7.55;;;2.13;;
30307;SDS011;17114;52.314;8.910;2022-07-29T11:15:14;5.15;;;2.03;;
30307;SDS011;17114;52.314;8.910;2022-07-29T11:20:42;6.65;;;2.00;;
30307;SDS011;17114;52.314;8.910;2022-07-29T11:23:23;6.18;;;2.28;;
30307;SDS011;17114;52.314;8.910;2022-07-29T11:29:27;7.05;;;2.65;;
30307;SDS011;17114;52.314;8.910;2022-07-29T11:31:44;7.63;;;2.72;;
30307;SDS011;17114;52.314;8.910;2022-07-29T11:34:25;10.38;;;2.33;;
30307;SDS011;17114;52.314;8.910;2022-07-29T11:47:52;6.35;;;2.20;;
30307;SDS011;17114;52.314;8.910;2022-07-29T11:50:28;9.18;;;2.28;;
30307;SDS011;17114;52.314;8.910;2022-07-29T11:53:02;6.60;;;2.65;;
30307;SDS011;17114;52.314;8.910;2022-07-29T11:55:37;9.43;;;2.92;;
30307;SDS011;17114;52.314;8.910;2022-07-29T11:58:20;11.88;;;2.97;;
30307;SDS011;17114;52.314;8.910;2022-07-29T12:00:51;9.07;;;2.67;;
30307;SDS011;17114;52.314;8.910;2022-07-29T12:03:23;6.78;;;2.72;;
30307;SDS011;17114;52.314;8.910;2022-07-29T12:06:12;9.27;;;2.67;;
30307;SDS011;17114;52.314;8.910;2022-07-29T12:08:43;6.03;;;2.20;;
30307;SDS011;17114;52.314;8.910;2022-07-29T12:11:19;9.77;;;2.33;;
30307;SDS011;17114;52.314;8.910;2022-07-29T12:13:48;13.15;;;2.70;;
30307;SDS011;17114;52.314;8.910;2022-07-29T12:16:19;10.80;;;2.45;;
30307;SDS011;17114;52.314;8.910;2022-07-29T12:19:01;14.38;;;2.88;;
30307;SDS011;17114;52.314;8.910;2022-07-29T12:21:35;6.55;;;2.38;;
30307;SDS011;17114;52.314;8.910;2022-07-29T12:24:26;10.27;;;2.65;;
30307;SDS011;17114;52.314;8.910;2022-07-29T12:26:54;8.95;;;2.80;;
30307;SDS011;17114;52.314;8.910;2022-07-29T12:29:22;7.50;;;2.38;;
30307;SDS011;17114;52.314;8.910;2022-07-29T12:32:01;12.90;;;2.83;;
30307;SDS011;17114;52.314;8.910;2022-07-29T12:34:30;9.52;;;2.75;;
30307;SDS011;17114;52.314;8.910;2022-07-29T12:37:00;12.55;;;3.00;;
30307;SDS011;17114;52.314;8.910;2022-07-29T12:39:28;6.43;;;2.28;;
30307;SDS011;17114;52.314;8.910;2022-07-29T12:41:55;10.48;;;2.30;;
30307;SDS011;17114;52.314;8.910;2022-07-29T12:47:15;6.93;;;2.60;;
30307;SDS011;17114;52.314;8.910;2022-07-29T12:49:44;10.43;;;2.42;;
30307;SDS011;17114;52.314;8.910;2022-07-29T12:52:33;9.00;;;2.58;;
30307;SDS011;17114;52.314;8.910;2022-07-29T12:55:01;11.25;;;2.72;;
30307;SDS011;17114;52.314;8.910;2022-07-29T12:57:28;11.63;;;2.63;;
30307;SDS011;17114;52.314;8.910;2022-07-29T13:00:05;9.10;;;2.90;;
30307;SDS011;17114;52.314;8.910;2022-07-29T13:02:35;10.35;;;2.55;;
30307;SDS011;17114;52.314;8.910;2022-07-29T13:05:03;8.70;;;3.03;;
30307;SDS011;17114;52.314;8.910;2022-07-29T13:07:33;4.32;;;2.30;;
30307;SDS011;17114;52.314;8.910;2022-07-29T13:10:22;7.82;;;2.60;;
30307;SDS011;17114;52.314;8.910;2022-07-29T13:15:32;10.38;;;3.03;;
30307;SDS011;17114;52.314;8.910;2022-07-29T13:18:00;8.32;;;2.78;;
30307;SDS011;17114;52.314;8.910;2022-07-29T13:20:28;11.05;;;2.95;;
30307;SDS011;17114;52.314;8.910;2022-07-29T13:22:56;13.48;;;3.13;;
30307;SDS011;17114;52.314;8.910;2022-07-29T13:25:26;10.93;;;3.33;;
30307;SDS011;17114;52.314;8.910;2022-07-29T13:27:58;8.68;;;3.05;;
30307;SDS011;17114;52.314;8.910;2022-07-29T13:30:25;11.00;;;2.85;;
30307;SDS011;17114;52.314;8.910;2022-07-29T13:32:52;11.40;;;2.70;;
30307;SDS011;17114;52.314;8.910;2022-07-29T13:35:22;11.57;;;2.83;;
30307;SDS011;17114;52.314;8.910;2022-07-29T13:37:49;8.73;;;2.85;;
30307;SDS011;17114;52.314;8.910;2022-07-29T13:40:17;8.73;;;2.70;;
30307;SDS011;17114;52.314;8.910;2022-07-29T13:42:44;10.60;;;2.85;;
30307;SDS011;17114;52.314;8.910;2022-07-29T13:45:12;8.05;;;2.53;;
30307;SDS011;17114;52.314;8.910;2022-07-29T13:47:40;15.18;;;3.42;;
30307;SDS011;17114;52.314;8.910;2022-07-29T13:50:14;10.65;;;2.80;;
30307;SDS011;17114;52.314;8.910;2022-07-29T13:52:41;10.48;;;2.95;;
30307;SDS011;17114;52.314;8.910;2022-07-29T13:55:08;11.45;;;2.50;;
30307;SDS011;17114;52.314;8.910;2022-07-29T13:57:35;10.23;;;2.67;;
30307;SDS011;17114;52.314;8.910;2022-07-29T14:00:02;8.13;;;3.38;;
30307;SDS011;17114;52.314;8.910;2022-07-29T14:02:29;7.03;;;2.80;;
30307;SDS011;17114;52.314;8.910;2022-07-29T14:04:59;10.23;;;3.20;;
30307;SDS011;17114;52.314;8.910;2022-07-29T14:07:33;8.68;;;2.80;;
30307;SDS011;17114;52.314;8.910;2022-07-29T14:09:59;7.57;;;2.42;;
30307;SDS011;17114;52.314;8.910;2022-07-29T14:12:26;13.40;;;3.40;;
30307;SDS011;17114;52.314;8.910;2022-07-29T14:14:53;7.00;;;3.03;;
30307;SDS011;17114;52.314;8.910;2022-07-29T14:17:20;7.25;;;2.90;;
30307;SDS011;17114;52.314;8.910;2022-07-29T14:19:47;8.68;;;2.97;;
30307;SDS011;17114;52.314;8.910;2022-07-29T14:22:14;11.38;;;2.83;;
30307;SDS011;17114;52.314;8.910;2022-07-29T14:24:41;8.70;;;2.83;;
30307;SDS011;17114;52.314;8.910;2022-07-29T14:27:08;7.53;;;2.78;;
30307;SDS011;17114;52.314;8.910;2022-07-29T14:29:36;6.13;;;2.65;;
30307;SDS011;17114;52.314;8.910;2022-07-29T14:32:07;5.15;;;2.70;;
30307;SDS011;17114;52.314;8.910;2022-07-29T14:34:36;9.27;;;3.00;;
30307;SDS011;17114;52.314;8.910;2022-07-29T14:37:04;10.30;;;3.00;;
30307;SDS011;17114;52.314;8.910;2022-07-29T14:39:32;10.65;;;2.97;;
30307;SDS011;17114;52.314;8.910;2022-07-29T14:44:34;9.23;;;2.88;;
30307;SDS011;17114;52.314;8.910;2022-07-29T14:47:01;7.50;;;2.78;;
30307;SDS011;17114;52.314;8.910;2022-07-29T14:49:33;7.10;;;2.90;;
30307;SDS011;17114;52.314;8.910;2022-07-29T14:52:00;7.72;;;2.88;;
30307;SDS011;17114;52.314;8.910;2022-07-29T14:54:27;6.45;;;3.15;;
30307;SDS011;17114;52.314;8.910;2022-07-29T14:56:57;5.45;;;2.72;;
30307;SDS011;17114;52.314;8.910;2022-07-29T14:59:24;8.07;;;2.72;;
30307;SDS011;17114;52.314;8.910;2022-07-29T15:01:53;10.95;;;3.33;;
30307;SDS011;17114;52.314;8.910;2022-07-29T15:04:20;6.65;;;2.85;;
30307;SDS011;17114;52.314;8.910;2022-07-29T15:06:47;9.90;;;3.08;;
30307;SDS011;17114;52.314;8.910;2022-07-29T15:09:14;6.30;;;2.88;;
30307;SDS011;17114;52.314;8.910;2022-07-29T15:11:41;6.78;;;2.85;;
30307;SDS011;17114;52.314;8.910;2022-07-29T15:14:08;6.78;;;2.55;;
30307;SDS011;17114;52.314;8.910;2022-07-29T15:16:35;8.30;;;2.83;;
30307;SDS011;17114;52.314;8.910;2022-07-29T15:19:04;7.22;;;2.83;;
30307;SDS011;17114;52.314;8.910;2022-07-29T15:21:31;10.30;;;3.25;;
30307;SDS011;17114;52.314;8.910;2022-07-29T15:24:06;9.38;;;3.05;;
30307;SDS011;17114;52.314;8.910;2022-07-29T15:26:33;8.38;;;2.95;;
30307;SDS011;17114;52.314;8.910;2022-07-29T15:29:00;8.55;;;3.00;;
30307;SDS011;17114;52.314;8.910;2022-07-29T15:31:29;8.93;;;3.00;;
30307;SDS011;17114;52.314;8.910;2022-07-29T15:33:55;10.82;;;3.45;;
30307;SDS011;17114;52.314;8.910;2022-07-29T15:36:27;10.07;;;2.97;;
30307;SDS011;17114;52.314;8.910;2022-07-29T15:39:14;10.55;;;2.83;;
30307;SDS011;17114;52.314;8.910;2022-07-29T15:41:41;7.85;;;3.25;;
30307;SDS011;17114;52.314;8.910;2022-07-29T15:44:08;11.25;;;3.25;;
30307;SDS011;17114;52.314;8.910;2022-07-29T15:46:35;7.65;;;3.17;;
30307;SDS011;17114;52.314;8.910;2022-07-29T15:49:24;7.85;;;3.20;;
30307;SDS011;17114;52.314;8.910;2022-07-29T15:52:14;9.65;;;3.13;;
30307;SDS011;17114;52.314;8.910;2022-07-29T15:54:49;7.13;;;2.80;;